sensor_id;sensor_type;location;lat;lon;timestamp;P1;P2;P0
46381;PMS5003;66809;52.974;-2.514;2023-05-10T00:01:48;6.6;5.483333333333333;
46381;PMS5003;66809;52.974;-2.514;2023-05-10T00:03:49;6.733333333333333;5.6;
46381;PMS5003;66809;52.974;-2.514;2023-05-10T00:05:49;6.75;5.633333333333334;
46381;PMS5003;66809;52.974;-2.514;2023-05-10T00:07:48;6.766666666666667;5.616666666666666;
46381;PMS5003;66809;52.974;-2.514;2023-05-10T00:09:49;6.85;5.666666666666667;
46381;PMS5003;66809;52.974;-2.514;2023-05-10T00:11:49;6.916666666666667;5.716666666666667;
46381;PMS5003;66809;52.974;-2.514;2023-05-10T00:13:48;6.966666666666667;5.783333333333333;
46381;PMS5003;66809;52.974;-2.514;2023-05-10T00:15:49;6.983333333333333;5.833333333333333;
46381;PMS5003;66809;52.974;-2.514;2023-05-10T00:17:49;6.933333333333334;5.816666666666666;
46381;PMS5003;66809;52.974;-2.514;2023-05-10T00:19:48;7.033333333333333;5.916666666666667;
46381;PMS5003;66809;52.974;-2.514;2023-05-10T00:21:49;7.083333333333333;6.0;
46381;PMS5003;66809;52.974;-2.514;2023-05-10T00:23:49;7.3;6.166666666666667;
46381;PMS5003;66809;52.974;-2.514;2023-05-10T00:25:48;7.283333333333333;6.2;
46381;PMS5003;66809;52.974;-2.514;2023-05-10T00:27:49;7.266666666666667;6.15;
46381;PMS5003;66809;52.974;-2.514;2023-05-10T00:29:49;7.25;6.116666666666666;
46381;PMS5003;66809;52.974;-2.514;2023-05-10T00:31:49;7.233333333333333;6.1;
46381;PMS5003;66809;52.974;-2.514;2023-05-10T00:33:49;7.2;6.116666666666666;
46381;PMS5003;66809;52.974;-2.514;2023-05-10T00:35:49;7.166666666666667;6.066666666666666;
46381;PMS5003;66809;52.974;-2.514;2023-05-10T00:37:49;7.166666666666667;6.033333333333333;
46381;PMS5003;66809;52.974;-2.514;2023-05-10T00:39:49;7.166666666666667;5.95;
46381;PMS5003;66809;52.974;-2.514;2023-05-10T00:41:49;7.05;5.9;
46381;PMS5003;66809;52.974;-2.514;2023-05-10T00:43:48;7.0;5.816666666666666;
46381;PMS5003;66809;52.974;-2.514;2023-05-10T00:45:49;7.0;5.8;
46381;PMS5003;66809;52.974;-2.514;2023-05-10T00:47:49;6.983333333333333;5.733333333333333;
46381;PMS5003;66809;52.974;-2.514;2023-05-10T00:49:49;7.033333333333333;5.783333333333333;
46381;PMS5003;66809;52.974;-2.514;2023-05-10T00:51:49;7.15;5.866666666666666;
46381;PMS5003;66809;52.974;-2.514;2023-05-10T00:53:49;7.033333333333333;5.783333333333333;
46381;PMS5003;66809;52.974;-2.514;2023-05-10T00:55:49;7.0;5.8;
46381;PMS5003;66809;52.974;-2.514;2023-05-10T00:57:48;6.95;5.783333333333333;
46381;PMS5003;66809;52.974;-2.514;2023-05-10T00:59:49;6.783333333333333;5.65;
46381;PMS5003;66809;52.974;-2.514;2023-05-10T01:01:49;6.733333333333333;5.616666666666666;
46381;PMS5003;66809;52.974;-2.514;2023-05-10T01:03:49;6.633333333333334;5.583333333333333;
46381;PMS5003;66809;52.974;-2.514;2023-05-10T01:05:49;6.65;5.616666666666666;
46381;PMS5003;66809;52.974;-2.514;2023-05-10T01:07:49;6.666666666666667;5.65;
46381;PMS5003;66809;52.974;-2.514;2023-05-10T01:09:49;6.666666666666667;5.683333333333334;
46381;PMS5003;66809;52.974;-2.514;2023-05-10T01:11:49;6.7;5.683333333333334;
46381;PMS5003;66809;52.974;-2.514;2023-05-10T01:13:50;6.7;5.683333333333334;
46381;PMS5003;66809;52.974;-2.514;2023-05-10T01:15:49;6.7;5.633333333333334;
46381;PMS5003;66809;52.974;-2.514;2023-05-10T01:17:49;6.733333333333333;5.633333333333334;
46381;PMS5003;66809;52.974;-2.514;2023-05-10T01:19:48;6.65;5.516666666666667;
46381;PMS5003;66809;52.974;-2.514;2023-05-10T01:21:51;6.666666666666667;5.483333333333333;
46381;PMS5003;66809;52.974;-2.514;2023-05-10T01:24:03;6.616666666666666;5.433333333333334;
46381;PMS5003;66809;52.974;-2.514;2023-05-10T01:26:02;6.616666666666666;5.433333333333334;
46381;PMS5003;66809;52.974;-2.514;2023-05-10T01:27:59;6.616666666666666;5.45;
46381;PMS5003;66809;52.974;-2.514;2023-05-10T01:29:55;6.733333333333333;5.6;
46381;PMS5003;66809;52.974;-2.514;2023-05-10T01:32:08;6.75;5.65;
46381;PMS5003;66809;52.974;-2.514;2023-05-10T01:33:50;6.866666666666666;5.716666666666667;
46381;PMS5003;66809;52.974;-2.514;2023-05-10T01:35:51;6.8;5.666666666666667;
46381;PMS5003;66809;52.974;-2.514;2023-05-10T01:37:50;6.866666666666666;5.783333333333333;
46381;PMS5003;66809;52.974;-2.514;2023-05-10T01:39:50;6.95;5.916666666666667;
46381;PMS5003;66809;52.974;-2.514;2023-05-10T01:41:50;7.05;6.033333333333333;
46381;PMS5003;66809;52.974;-2.514;2023-05-10T01:43:52;7.083333333333333;6.066666666666666;
46381;PMS5003;66809;52.974;-2.514;2023-05-10T01:45:50;7.116666666666666;6.133333333333334;
46381;PMS5003;66809;52.974;-2.514;2023-05-10T01:47:50;7.083333333333333;6.15;
46381;PMS5003;66809;52.974;-2.514;2023-05-10T01:49:50;7.083333333333333;6.15;
46381;PMS5003;66809;52.974;-2.514;2023-05-10T01:51:50;7.05;6.1;
46381;PMS5003;66809;52.974;-2.514;2023-05-10T01:53:49;7.15;6.15;
46381;PMS5003;66809;52.974;-2.514;2023-05-10T01:55:49;7.116666666666666;6.133333333333334;
46381;PMS5003;66809;52.974;-2.514;2023-05-10T01:57:51;7.083333333333333;6.1;
46381;PMS5003;66809;52.974;-2.514;2023-05-10T01:59:49;7.116666666666666;6.133333333333334;
46381;PMS5003;66809;52.974;-2.514;2023-05-10T02:01:49;7.083333333333333;6.1;
46381;PMS5003;66809;52.974;-2.514;2023-05-10T02:03:49;7.133333333333334;6.066666666666666;
46381;PMS5003;66809;52.974;-2.514;2023-05-10T02:05:49;7.116666666666666;6.0;
46381;PMS5003;66809;52.974;-2.514;2023-05-10T02:07:49;7.133333333333334;6.0;
46381;PMS5003;66809;52.974;-2.514;2023-05-10T02:09:49;7.233333333333333;6.083333333333333;
46381;PMS5003;66809;52.974;-2.514;2023-05-10T02:11:48;7.283333333333333;6.083333333333333;
46381;PMS5003;66809;52.974;-2.514;2023-05-10T02:13:49;7.25;6.083333333333333;
46381;PMS5003;66809;52.974;-2.514;2023-05-10T02:15:49;7.35;6.183333333333334;
46381;PMS5003;66809;52.974;-2.514;2023-05-10T02:17:49;7.383333333333334;6.25;
46381;PMS5003;66809;52.974;-2.514;2023-05-10T02:19:48;7.433333333333334;6.25;
46381;PMS5003;66809;52.974;-2.514;2023-05-10T02:21:49;7.383333333333334;6.233333333333333;
46381;PMS5003;66809;52.974;-2.514;2023-05-10T02:23:50;7.316666666666666;6.2;
46381;PMS5003;66809;52.974;-2.514;2023-05-10T02:25:49;7.283333333333333;6.133333333333334;
46381;PMS5003;66809;52.974;-2.514;2023-05-10T02:27:49;7.316666666666666;6.15;
46381;PMS5003;66809;52.974;-2.514;2023-05-10T02:29:48;7.233333333333333;6.05;
46381;PMS5003;66809;52.974;-2.514;2023-05-10T02:31:49;7.3;6.066666666666666;
46381;PMS5003;66809;52.974;-2.514;2023-05-10T02:33:49;7.2;6.016666666666667;
46381;PMS5003;66809;52.974;-2.514;2023-05-10T02:35:49;7.233333333333333;6.083333333333333;
46381;PMS5003;66809;52.974;-2.514;2023-05-10T02:37:48;7.15;5.983333333333333;
46381;PMS5003;66809;52.974;-2.514;2023-05-10T02:39:49;7.016666666666667;5.866666666666666;
46381;PMS5003;66809;52.974;-2.514;2023-05-10T02:41:49;6.95;5.75;
46381;PMS5003;66809;52.974;-2.514;2023-05-10T02:43:49;7.0;5.783333333333333;
46381;PMS5003;66809;52.974;-2.514;2023-05-10T02:45:48;7.0;5.716666666666667;
46381;PMS5003;66809;52.974;-2.514;2023-05-10T02:47:49;7.116666666666666;5.766666666666667;
46381;PMS5003;66809;52.974;-2.514;2023-05-10T02:49:49;7.1;5.733333333333333;
46381;PMS5003;66809;52.974;-2.514;2023-05-10T02:51:50;7.116666666666666;5.75;
46381;PMS5003;66809;52.974;-2.514;2023-05-10T02:53:49;7.1;5.733333333333333;
46381;PMS5003;66809;52.974;-2.514;2023-05-10T02:55:50;7.116666666666666;5.733333333333333;
46381;PMS5003;66809;52.974;-2.514;2023-05-10T02:57:51;7.2;5.733333333333333;
46381;PMS5003;66809;52.974;-2.514;2023-05-10T02:59:48;7.25;5.733333333333333;
46381;PMS5003;66809;52.974;-2.514;2023-05-10T03:01:49;7.316666666666666;5.783333333333333;
46381;PMS5003;66809;52.974;-2.514;2023-05-10T03:03:49;7.283333333333333;5.8;
46381;PMS5003;66809;52.974;-2.514;2023-05-10T03:05:48;7.35;5.883333333333334;
46381;PMS5003;66809;52.974;-2.514;2023-05-10T03:07:49;7.433333333333334;5.9;
46381;PMS5003;66809;52.974;-2.514;2023-05-10T03:09:49;7.316666666666666;5.783333333333333;
46381;PMS5003;66809;52.974;-2.514;2023-05-10T03:11:50;7.233333333333333;5.816666666666666;
46381;PMS5003;66809;52.974;-2.514;2023-05-10T03:13:51;7.333333333333333;5.866666666666666;
46381;PMS5003;66809;52.974;-2.514;2023-05-10T03:15:51;7.3;5.85;
46381;PMS5003;66809;52.974;-2.514;2023-05-10T03:17:51;7.333333333333333;5.866666666666666;
46381;PMS5003;66809;52.974;-2.514;2023-05-10T03:19:50;7.366666666666666;5.916666666666667;
46381;PMS5003;66809;52.974;-2.514;2023-05-10T03:21:50;7.416666666666667;5.9;
46381;PMS5003;66809;52.974;-2.514;2023-05-10T03:23:50;7.583333333333333;6.016666666666667;
46381;PMS5003;66809;52.974;-2.514;2023-05-10T03:25:49;7.633333333333334;6.05;
46381;PMS5003;66809;52.974;-2.514;2023-05-10T03:27:48;7.6;6.083333333333333;
46381;PMS5003;66809;52.974;-2.514;2023-05-10T03:29:49;7.65;6.133333333333334;
46381;PMS5003;66809;52.974;-2.514;2023-05-10T03:31:49;7.716666666666667;6.2;
46381;PMS5003;66809;52.974;-2.514;2023-05-10T03:33:50;7.883333333333334;6.283333333333333;
46381;PMS5003;66809;52.974;-2.514;2023-05-10T03:35:48;7.833333333333333;6.216666666666667;
46381;PMS5003;66809;52.974;-2.514;2023-05-10T03:37:49;8.0;6.4;
46381;PMS5003;66809;52.974;-2.514;2023-05-10T03:39:49;8.016666666666667;6.433333333333334;
46381;PMS5003;66809;52.974;-2.514;2023-05-10T03:41:48;8.066666666666666;6.483333333333333;
46381;PMS5003;66809;52.974;-2.514;2023-05-10T03:43:49;8.033333333333333;6.533333333333333;
46381;PMS5003;66809;52.974;-2.514;2023-05-10T03:45:49;7.966666666666667;6.55;
46381;PMS5003;66809;52.974;-2.514;2023-05-10T03:47:48;7.95;6.566666666666666;
46381;PMS5003;66809;52.974;-2.514;2023-05-10T03:49:49;8.1;6.683333333333334;
46381;PMS5003;66809;52.974;-2.514;2023-05-10T03:51:49;8.166666666666666;6.75;
46381;PMS5003;66809;52.974;-2.514;2023-05-10T03:53:48;8.216666666666667;6.783333333333333;
46381;PMS5003;66809;52.974;-2.514;2023-05-10T03:55:49;8.266666666666667;6.816666666666666;
46381;PMS5003;66809;52.974;-2.514;2023-05-10T03:57:49;8.216666666666667;6.833333333333333;
46381;PMS5003;66809;52.974;-2.514;2023-05-10T03:59:49;8.233333333333333;6.85;
46381;PMS5003;66809;52.974;-2.514;2023-05-10T04:01:48;8.35;6.883333333333334;
46381;PMS5003;66809;52.974;-2.514;2023-05-10T04:03:49;8.3;6.866666666666666;
46381;PMS5003;66809;52.974;-2.514;2023-05-10T04:05:49;8.333333333333334;6.883333333333334;
46381;PMS5003;66809;52.974;-2.514;2023-05-10T04:07:48;8.333333333333334;6.9;
46381;PMS5003;66809;52.974;-2.514;2023-05-10T04:09:49;8.316666666666666;6.9;
46381;PMS5003;66809;52.974;-2.514;2023-05-10T04:11:49;8.266666666666667;6.866666666666666;
46381;PMS5003;66809;52.974;-2.514;2023-05-10T04:13:48;8.183333333333334;6.833333333333333;
46381;PMS5003;66809;52.974;-2.514;2023-05-10T04:15:49;8.25;6.9;
46381;PMS5003;66809;52.974;-2.514;2023-05-10T04:17:49;8.283333333333333;6.916666666666667;
46381;PMS5003;66809;52.974;-2.514;2023-05-10T04:19:49;8.3;7.016666666666667;
46381;PMS5003;66809;52.974;-2.514;2023-05-10T04:21:49;8.383333333333333;7.15;
46381;PMS5003;66809;52.974;-2.514;2023-05-10T04:23:49;8.266666666666667;7.083333333333333;
46381;PMS5003;66809;52.974;-2.514;2023-05-10T04:25:48;8.233333333333333;7.066666666666666;
46381;PMS5003;66809;52.974;-2.514;2023-05-10T04:27:49;8.15;6.966666666666667;
46381;PMS5003;66809;52.974;-2.514;2023-05-10T04:29:49;8.3;6.983333333333333;
46381;PMS5003;66809;52.974;-2.514;2023-05-10T04:31:48;8.25;6.916666666666667;
46381;PMS5003;66809;52.974;-2.514;2023-05-10T04:33:49;8.216666666666667;6.9;
46381;PMS5003;66809;52.974;-2.514;2023-05-10T04:35:49;8.433333333333334;7.0;
46381;PMS5003;66809;52.974;-2.514;2023-05-10T04:37:48;8.4;6.9;
46381;PMS5003;66809;52.974;-2.514;2023-05-10T04:39:49;8.466666666666667;6.9;
46381;PMS5003;66809;52.974;-2.514;2023-05-10T04:41:49;8.55;6.966666666666667;
46381;PMS5003;66809;52.974;-2.514;2023-05-10T04:43:49;8.55;6.95;
46381;PMS5003;66809;52.974;-2.514;2023-05-10T04:45:49;8.566666666666666;6.916666666666667;
46381;PMS5003;66809;52.974;-2.514;2023-05-10T04:47:49;8.633333333333333;6.966666666666667;
46381;PMS5003;66809;52.974;-2.514;2023-05-10T04:49:49;8.666666666666666;7.0;
46381;PMS5003;66809;52.974;-2.514;2023-05-10T04:51:49;8.633333333333333;7.0;
46381;PMS5003;66809;52.974;-2.514;2023-05-10T04:53:48;8.566666666666666;7.0;
46381;PMS5003;66809;52.974;-2.514;2023-05-10T04:55:49;8.633333333333333;7.0;
46381;PMS5003;66809;52.974;-2.514;2023-05-10T04:57:49;8.683333333333334;7.033333333333333;
46381;PMS5003;66809;52.974;-2.514;2023-05-10T04:59:48;8.7;7.066666666666666;
46381;PMS5003;66809;52.974;-2.514;2023-05-10T05:01:49;8.633333333333333;7.066666666666666;
46381;PMS5003;66809;52.974;-2.514;2023-05-10T05:03:49;8.716666666666667;7.1;
46381;PMS5003;66809;52.974;-2.514;2023-05-10T05:05:49;8.733333333333333;7.133333333333334;
46381;PMS5003;66809;52.974;-2.514;2023-05-10T05:07:49;8.666666666666666;7.1;
46381;PMS5003;66809;52.974;-2.514;2023-05-10T05:09:49;8.716666666666667;7.133333333333334;
46381;PMS5003;66809;52.974;-2.514;2023-05-10T05:11:49;8.683333333333334;7.1;
46381;PMS5003;66809;52.974;-2.514;2023-05-10T05:13:48;8.733333333333333;7.133333333333334;
46381;PMS5003;66809;52.974;-2.514;2023-05-10T05:15:49;8.65;7.1;
46381;PMS5003;66809;52.974;-2.514;2023-05-10T05:17:49;8.7;7.133333333333334;
46381;PMS5003;66809;52.974;-2.514;2023-05-10T05:19:48;8.75;7.116666666666666;
46381;PMS5003;66809;52.974;-2.514;2023-05-10T05:21:49;8.8;7.1;
46381;PMS5003;66809;52.974;-2.514;2023-05-10T05:23:49;8.983333333333333;7.283333333333333;
46381;PMS5003;66809;52.974;-2.514;2023-05-10T05:25:48;9.383333333333333;7.7;
46381;PMS5003;66809;52.974;-2.514;2023-05-10T05:27:49;10.3;8.516666666666667;
46381;PMS5003;66809;52.974;-2.514;2023-05-10T05:29:49;11.566666666666666;9.75;
46381;PMS5003;66809;52.974;-2.514;2023-05-10T05:31:48;12.45;10.55;
46381;PMS5003;66809;52.974;-2.514;2023-05-10T05:33:49;12.783333333333333;10.866666666666667;
46381;PMS5003;66809;52.974;-2.514;2023-05-10T05:35:49;12.8;11.016666666666667;
46381;PMS5003;66809;52.974;-2.514;2023-05-10T05:37:49;13.0;11.133333333333333;
46381;PMS5003;66809;52.974;-2.514;2023-05-10T05:39:49;13.233333333333333;11.383333333333333;
46381;PMS5003;66809;52.974;-2.514;2023-05-10T05:41:49;13.266666666666667;11.416666666666666;
46381;PMS5003;66809;52.974;-2.514;2023-05-10T05:43:49;13.333333333333334;11.45;
46381;PMS5003;66809;52.974;-2.514;2023-05-10T05:45:49;13.466666666666667;11.6;
46381;PMS5003;66809;52.974;-2.514;2023-05-10T05:47:49;13.516666666666667;11.666666666666666;
46381;PMS5003;66809;52.974;-2.514;2023-05-10T05:49:49;13.466666666666667;11.7;
46381;PMS5003;66809;52.974;-2.514;2023-05-10T05:51:49;13.433333333333334;11.7;
46381;PMS5003;66809;52.974;-2.514;2023-05-10T05:53:48;13.616666666666667;11.766666666666667;
46381;PMS5003;66809;52.974;-2.514;2023-05-10T05:55:50;13.583333333333334;11.8;
46381;PMS5003;66809;52.974;-2.514;2023-05-10T05:57:49;13.616666666666667;11.8;
46381;PMS5003;66809;52.974;-2.514;2023-05-10T05:59:49;13.816666666666666;11.883333333333333;
46381;PMS5003;66809;52.974;-2.514;2023-05-10T06:01:49;13.866666666666667;11.966666666666667;
46381;PMS5003;66809;52.974;-2.514;2023-05-10T06:03:49;14.066666666666666;12.183333333333334;
46381;PMS5003;66809;52.974;-2.514;2023-05-10T06:05:48;13.966666666666667;12.116666666666667;
46381;PMS5003;66809;52.974;-2.514;2023-05-10T06:07:49;14.033333333333333;12.183333333333334;
46381;PMS5003;66809;52.974;-2.514;2023-05-10T06:09:49;14.083333333333334;12.233333333333333;
46381;PMS5003;66809;52.974;-2.514;2023-05-10T06:11:48;14.183333333333334;12.25;
46381;PMS5003;66809;52.974;-2.514;2023-05-10T06:13:49;14.3;12.283333333333333;
46381;PMS5003;66809;52.974;-2.514;2023-05-10T06:15:49;14.316666666666666;12.266666666666667;
46381;PMS5003;66809;52.974;-2.514;2023-05-10T06:17:49;14.3;12.25;
46381;PMS5003;66809;52.974;-2.514;2023-05-10T06:19:49;14.216666666666667;12.166666666666666;
46381;PMS5003;66809;52.974;-2.514;2023-05-10T06:21:49;14.216666666666667;12.183333333333334;
46381;PMS5003;66809;52.974;-2.514;2023-05-10T06:23:49;14.066666666666666;12.016666666666667;
46381;PMS5003;66809;52.974;-2.514;2023-05-10T06:25:49;13.733333333333333;11.7;
46381;PMS5003;66809;52.974;-2.514;2023-05-10T06:27:48;13.066666666666666;11.133333333333333;
46381;PMS5003;66809;52.974;-2.514;2023-05-10T06:29:49;11.766666666666667;9.983333333333333;
46381;PMS5003;66809;52.974;-2.514;2023-05-10T06:31:49;11.083333333333334;9.383333333333333;
46381;PMS5003;66809;52.974;-2.514;2023-05-10T06:33:48;10.833333333333334;9.15;
46381;PMS5003;66809;52.974;-2.514;2023-05-10T06:35:49;11.0;9.283333333333333;
46381;PMS5003;66809;52.974;-2.514;2023-05-10T06:37:49;10.933333333333334;9.333333333333334;
46381;PMS5003;66809;52.974;-2.514;2023-05-10T06:39:49;10.883333333333333;9.233333333333333;
46381;PMS5003;66809;52.974;-2.514;2023-05-10T06:41:49;10.866666666666667;9.216666666666667;
46381;PMS5003;66809;52.974;-2.514;2023-05-10T06:43:49;10.916666666666666;9.266666666666667;
46381;PMS5003;66809;52.974;-2.514;2023-05-10T06:45:49;10.9;9.266666666666667;
46381;PMS5003;66809;52.974;-2.514;2023-05-10T06:47:49;11.083333333333334;9.433333333333334;
46381;PMS5003;66809;52.974;-2.514;2023-05-10T06:49:49;11.216666666666667;9.516666666666667;
46381;PMS5003;66809;52.974;-2.514;2023-05-10T06:51:49;11.633333333333333;9.883333333333333;
46381;PMS5003;66809;52.974;-2.514;2023-05-10T06:53:49;11.9;10.166666666666666;
46381;PMS5003;66809;52.974;-2.514;2023-05-10T06:55:49;12.366666666666667;10.516666666666667;
46381;PMS5003;66809;52.974;-2.514;2023-05-10T06:57:49;12.6;10.65;
46381;PMS5003;66809;52.974;-2.514;2023-05-10T06:59:48;12.416666666666666;10.533333333333333;
46381;PMS5003;66809;52.974;-2.514;2023-05-10T07:01:49;12.416666666666666;10.516666666666667;
46381;PMS5003;66809;52.974;-2.514;2023-05-10T07:03:49;12.466666666666667;10.533333333333333;
46381;PMS5003;66809;52.974;-2.514;2023-05-10T07:05:48;12.783333333333333;10.816666666666666;
46381;PMS5003;66809;52.974;-2.514;2023-05-10T07:07:49;12.883333333333333;10.916666666666666;
46381;PMS5003;66809;52.974;-2.514;2023-05-10T07:09:49;13.1;11.083333333333334;
46381;PMS5003;66809;52.974;-2.514;2023-05-10T07:11:48;13.25;11.216666666666667;
46381;PMS5003;66809;52.974;-2.514;2023-05-10T07:13:49;13.433333333333334;11.4;
46381;PMS5003;66809;52.974;-2.514;2023-05-10T07:15:49;13.85;11.75;
46381;PMS5003;66809;52.974;-2.514;2023-05-10T07:17:49;13.95;11.833333333333334;
46381;PMS5003;66809;52.974;-2.514;2023-05-10T07:19:48;14.15;12.0;
46381;PMS5003;66809;52.974;-2.514;2023-05-10T07:21:49;14.183333333333334;12.033333333333333;
46381;PMS5003;66809;52.974;-2.514;2023-05-10T07:23:49;14.3;12.116666666666667;
46381;PMS5003;66809;52.974;-2.514;2023-05-10T07:25:49;14.466666666666667;12.2;
46381;PMS5003;66809;52.974;-2.514;2023-05-10T07:27:49;14.383333333333333;12.083333333333334;
46381;PMS5003;66809;52.974;-2.514;2023-05-10T07:29:49;14.283333333333333;11.966666666666667;
46381;PMS5003;66809;52.974;-2.514;2023-05-10T07:31:48;14.133333333333333;11.783333333333333;
46381;PMS5003;66809;52.974;-2.514;2023-05-10T07:33:49;13.983333333333333;11.683333333333334;
46381;PMS5003;66809;52.974;-2.514;2023-05-10T07:35:49;13.566666666666666;11.283333333333333;
46381;PMS5003;66809;52.974;-2.514;2023-05-10T07:37:49;13.333333333333334;11.016666666666667;
46381;PMS5003;66809;52.974;-2.514;2023-05-10T07:39:49;13.116666666666667;10.866666666666667;
46381;PMS5003;66809;52.974;-2.514;2023-05-10T07:41:48;13.0;10.75;
46381;PMS5003;66809;52.974;-2.514;2023-05-10T07:43:49;12.866666666666667;10.566666666666666;
46381;PMS5003;66809;52.974;-2.514;2023-05-10T07:45:49;12.716666666666667;10.416666666666666;
46381;PMS5003;66809;52.974;-2.514;2023-05-10T07:47:48;12.366666666666667;10.066666666666666;
46381;PMS5003;66809;52.974;-2.514;2023-05-10T07:49:49;12.066666666666666;9.783333333333333;
46381;PMS5003;66809;52.974;-2.514;2023-05-10T07:51:49;11.55;9.266666666666667;
46381;PMS5003;66809;52.974;-2.514;2023-05-10T07:53:48;11.133333333333333;8.816666666666666;
46381;PMS5003;66809;52.974;-2.514;2023-05-10T07:55:50;10.7;8.416666666666666;
46381;PMS5003;66809;52.974;-2.514;2023-05-10T07:57:49;10.433333333333334;8.233333333333333;
46381;PMS5003;66809;52.974;-2.514;2023-05-10T07:59:48;10.383333333333333;8.216666666666667;
46381;PMS5003;66809;52.974;-2.514;2023-05-10T08:01:49;10.4;8.216666666666667;
46381;PMS5003;66809;52.974;-2.514;2023-05-10T08:03:49;10.083333333333334;7.916666666666667;
46381;PMS5003;66809;52.974;-2.514;2023-05-10T08:05:48;9.716666666666667;7.583333333333333;
46381;PMS5003;66809;52.974;-2.514;2023-05-10T08:07:49;9.45;7.333333333333333;
46381;PMS5003;66809;52.974;-2.514;2023-05-10T08:09:49;9.2;7.1;
46381;PMS5003;66809;52.974;-2.514;2023-05-10T08:11:49;9.016666666666667;6.966666666666667;
46381;PMS5003;66809;52.974;-2.514;2023-05-10T08:13:50;8.766666666666667;6.683333333333334;
46381;PMS5003;66809;52.974;-2.514;2023-05-10T08:15:49;8.516666666666667;6.3;
46381;PMS5003;66809;52.974;-2.514;2023-05-10T08:17:49;8.4;6.2;
46381;PMS5003;66809;52.974;-2.514;2023-05-10T08:19:48;8.233333333333333;6.033333333333333;
46381;PMS5003;66809;52.974;-2.514;2023-05-10T08:21:49;8.066666666666666;5.95;
46381;PMS5003;66809;52.974;-2.514;2023-05-10T08:23:49;7.983333333333333;5.883333333333334;
46381;PMS5003;66809;52.974;-2.514;2023-05-10T08:25:48;7.85;5.766666666666667;
46381;PMS5003;66809;52.974;-2.514;2023-05-10T08:27:49;7.816666666666666;5.766666666666667;
46381;PMS5003;66809;52.974;-2.514;2023-05-10T08:29:49;7.866666666666666;5.816666666666666;
46381;PMS5003;66809;52.974;-2.514;2023-05-10T08:31:48;7.85;5.9;
46381;PMS5003;66809;52.974;-2.514;2023-05-10T08:33:49;7.866666666666666;5.883333333333334;
46381;PMS5003;66809;52.974;-2.514;2023-05-10T08:35:49;7.8;5.85;
46381;PMS5003;66809;52.974;-2.514;2023-05-10T08:37:50;7.733333333333333;5.833333333333333;
46381;PMS5003;66809;52.974;-2.514;2023-05-10T08:39:49;7.666666666666667;5.766666666666667;
46381;PMS5003;66809;52.974;-2.514;2023-05-10T08:41:50;7.666666666666667;5.75;
46381;PMS5003;66809;52.974;-2.514;2023-05-10T08:43:49;7.55;5.716666666666667;
46381;PMS5003;66809;52.974;-2.514;2023-05-10T08:45:49;7.416666666666667;5.6;
46381;PMS5003;66809;52.974;-2.514;2023-05-10T08:47:49;7.433333333333334;5.566666666666666;
46381;PMS5003;66809;52.974;-2.514;2023-05-10T08:49:48;7.316666666666666;5.483333333333333;
46381;PMS5003;66809;52.974;-2.514;2023-05-10T08:51:50;7.25;5.45;
46381;PMS5003;66809;52.974;-2.514;2023-05-10T08:53:49;7.216666666666667;5.483333333333333;
46381;PMS5003;66809;52.974;-2.514;2023-05-10T08:55:49;7.05;5.4;
46381;PMS5003;66809;52.974;-2.514;2023-05-10T08:57:49;6.983333333333333;5.316666666666666;
46381;PMS5003;66809;52.974;-2.514;2023-05-10T08:59:49;6.816666666666666;5.2;
46381;PMS5003;66809;52.974;-2.514;2023-05-10T09:01:49;6.583333333333333;4.966666666666667;
46381;PMS5003;66809;52.974;-2.514;2023-05-10T09:03:49;6.6;5.0;
46381;PMS5003;66809;52.974;-2.514;2023-05-10T09:05:49;6.566666666666666;4.916666666666667;
46381;PMS5003;66809;52.974;-2.514;2023-05-10T09:07:48;6.55;4.9;
46381;PMS5003;66809;52.974;-2.514;2023-05-10T09:09:49;6.416666666666667;4.816666666666666;
46381;PMS5003;66809;52.974;-2.514;2023-05-10T09:11:49;6.266666666666667;4.683333333333334;
46381;PMS5003;66809;52.974;-2.514;2023-05-10T09:13:49;6.166666666666667;4.65;
46381;PMS5003;66809;52.974;-2.514;2023-05-10T09:15:49;5.883333333333334;4.583333333333333;
46381;PMS5003;66809;52.974;-2.514;2023-05-10T09:17:49;5.7;4.45;
46381;PMS5003;66809;52.974;-2.514;2023-05-10T09:19:49;5.5;4.35;
46381;PMS5003;66809;52.974;-2.514;2023-05-10T09:21:48;5.416666666666667;4.266666666666667;
46381;PMS5003;66809;52.974;-2.514;2023-05-10T09:23:49;5.283333333333333;4.133333333333334;
46381;PMS5003;66809;52.974;-2.514;2023-05-10T09:26:01;5.066666666666666;3.9833333333333334;
46381;PMS5003;66809;52.974;-2.514;2023-05-10T09:27:49;4.933333333333334;3.8;
46381;PMS5003;66809;52.974;-2.514;2023-05-10T09:29:49;4.633333333333334;3.55;
46381;PMS5003;66809;52.974;-2.514;2023-05-10T09:31:49;4.45;3.3333333333333335;
46381;PMS5003;66809;52.974;-2.514;2023-05-10T09:33:49;4.25;3.1666666666666665;
46381;PMS5003;66809;52.974;-2.514;2023-05-10T09:35:49;4.2;3.1;
46381;PMS5003;66809;52.974;-2.514;2023-05-10T09:37:50;4.116666666666666;3.033333333333333;